Baird, Texas
Current Conditions -  °F | °C
As of 11:52 AM on Sunday 21 Dec 2014 (Local Time) from KABI Reporting Station
Scattered Clouds Scattered Clouds  
Wind Chill: 54°   Ceiling: Unl
Heat Index: 54°   Visibility: 10mi
Dew Point: 43°   Wind: 23mph
Humidity: 66%   Direction: 200°SSW
Pressure: 29.92"   Gusts: NA
Location:  32.39°N, 99.39°W
Report Text: KABI 211752Z 20020KT 10SM SCT018 12/06 A2992 RMK AO2 PK WND 22026/1656 SLP127 T01220061 10122 20083 56019
Loading
Personal Weather Stations






























Interactive Weather Map New forecast layout! Learn more

10-Day Weather Forecast

Advertisements
Track Severe Weather on mobile